Decoded Metar for LJMB (MARIBOR in SLOVENIA) (IATA:MBX) | Meteo·Mobile Aviation Weather
aviador You're here:

LJMB Decoded Metar

MARIBOR in SLOVENIA
Report Time2019-07-20 01:00:00
UTC Time2019-07-20 01:12:50
Flight Rules vfr VFR
WindVRB at 01 kt
Visibility9999 m
Phenomena:N/A
Clouds:N/A
Expected CloudBase > 800 ft AGL from Temp-Dew spread
CeilingNone
Temp17°C (ISA +4)
Dew Point15°C (88% RH)
QNH1017 hPa
Density Alt1,404 ft
Elevation869 ft
Report Wrong Elevation
Raw Report
LJMB 200100Z AUTO VRB01KT 9999 NSC 17/15 Q1017=

Extra information for LJMB:More info

Metar Taf Metar & Taf Last 4 Metars F.Rules Stats Wind Profile Meteogram Temp Stats Airport Information Weather charts Add Link Nearby VenuesMetar ALERT Operation Metar Decoded Social comments